MMSDMMCL

Guest
Details From MMSD - LOS CABOS INTL
To MMCL - CULIACAN INTL
Flight Number -
Tags generated
Created
Modified
Stats Distance 157 nm / 291 km
Max Altitude 9,000 ft / 2,743 m
Waypoints 4
Social Downloads 4
Likes 0
Share VATSIM

Download

Looking for another format? Having issues loading an existing format? Contact us
Advertisement - Login to hide

Notes

Basic altitude profile: - Ascent Rate: 2500ft/min - Ascent Speed: 250kts - Cruise Altitude: 29000ft - Cruise Speed: 285kts - Descent Rate: 1500ft/min - Descent Speed: 250kts Options: - Use NATs: yes - Use PACOTS: yes - Use low airways: yes - Use high airways: yes

Route

MMSD SJD V12 CUL MMCL

ID Type Via Altitude Latitude Longitude Leg Dist Tot Dist Heading (true) Name
O MMSD APT - 0 ft / 0 m 23.15185˚ -109.72104˚ - 0 nm - LOS CABOS INTL
SJD VOR - 100 ft / 30 m 23.14616˚ -109.72154˚ 0 nm 0 nm 185° / 185° CABOS VOR-DME
CUL VOR V12 (AWY-LO) 9,000 ft / 2,743 m 24.76443˚ -107.47728˚ 156 nm 157 nm 51° / 52° CULIACAN VOR-DME
O MMCL APT - 0 ft / 0 m 24.76566˚ -107.47611˚ 0 nm 157 nm 41° / 41° CULIACAN INTL

Altitude Profile

Advertisement - Login to hide

MMSD

Details ICAO MMSD (SJD)
Name LOS CABOS INTL
Region Mexico
Timezone America/Mazatlan (UTC-7.0)
Stats Elevation 374 ft / 114 m (AMSL)
Location 23.151850° -109.721044°
Runways 1
Magnetic Variation 8.325° E

METAR

Not found

TAF

TAF TAF MMSD 170538Z 1706/1806 30005KT P6SM SCT030 BKN250 FM171600 30010KT P6SM SCT030 SCT100 FM180200 30005KT P6SM SCT250

Decode

Departure Runways

ID Width Length Bearing (true) Bearing (mag) Surface Threshold Offset Overrun Length
16 148 ft / 45 m 9,857 ft / 3,004 m 173.75° 165.42° Asphalt 0 ft / 0 m 215 ft / 66 m
34 148 ft / 45 m 9,857 ft / 3,004 m 353.75° 345.42° Asphalt 0 ft / 0 m 200 ft / 61 m

MMCL

Details ICAO MMCL (CUL)
Name CULIACAN INTL
Region Mexico
Timezone America/Mazatlan (UTC-7.0)
Stats Elevation 108 ft / 33 m (AMSL)
Location 24.765658° -107.476106°
Runways 1
Magnetic Variation 7.841° E

METAR

Not found

TAF

TAF MMCL 170530Z 1706/1806 00000KT P6SM BKN200 FM171800 23010KT P6SM SCT030 BKN100 BKN200 FM180400 23005KT 6SM HZ SCT020 BKN200

Decode

Destination Runways

ID Width Length Bearing (true) Bearing (mag) Surface Threshold Offset Overrun Length
02 148 ft / 45 m 7,568 ft / 2,307 m 32.85° 25.01° Asphalt 0 ft / 0 m 0 ft / 0 m
20 148 ft / 45 m 7,568 ft / 2,307 m 212.86° 205.02° Asphalt 886 ft / 270 m 0 ft / 0 m

Popular Alternatives